createdAt,value
2023-03-28T00:01:57.146Z,82.21
2023-03-28T00:04:14.429Z,82.83
2023-03-28T00:06:31.950Z,83.33
2023-03-28T00:08:49.215Z,83.01
2023-03-28T00:11:06.547Z,83.55
2023-03-28T00:13:24.742Z,83.06
2023-03-28T00:15:42.725Z,83.22
2023-03-28T00:18:00.353Z,82.95
2023-03-28T00:20:17.672Z,83.33
2023-03-28T00:22:34.676Z,83.44
2023-03-28T00:24:51.962Z,83.43
2023-03-28T00:27:09.238Z,83.41
2023-03-28T00:29:26.525Z,84.05
2023-03-28T00:31:43.911Z,83.65
2023-03-28T00:34:02.259Z,83.54
2023-03-28T00:36:19.332Z,83.79
2023-03-28T00:38:36.405Z,83.83
2023-03-28T00:40:54.651Z,83.75
2023-03-28T00:43:11.886Z,83.40
2023-03-28T00:45:28.882Z,83.86
2023-03-28T00:47:46.051Z,83.55
2023-03-28T00:50:03.469Z,84.30
2023-03-28T00:52:20.403Z,84.46
2023-03-28T00:54:37.395Z,83.74
2023-03-28T00:56:54.386Z,83.85
2023-03-28T00:59:11.289Z,84.39
2023-03-28T01:01:28.386Z,83.66
2023-03-28T01:03:45.785Z,83.73
2023-03-28T01:06:03.196Z,83.10
2023-03-28T01:08:20.233Z,84.05
2023-03-28T01:10:37.289Z,83.35
2023-03-28T01:12:54.576Z,83.02
2023-03-28T01:15:13.051Z,83.37
2023-03-28T01:17:29.953Z,83.63
2023-03-28T01:19:47.026Z,83.82
2023-03-28T01:22:04.031Z,83.25
2023-03-28T01:24:21.366Z,83.73
2023-03-28T01:26:38.510Z,83.10
2023-03-28T01:28:55.503Z,82.72
2023-03-28T01:31:12.803Z,82.61
2023-03-28T01:33:29.908Z,83.05
2023-03-28T01:35:46.946Z,83.28
2023-03-28T01:38:04.006Z,83.54
2023-03-28T01:40:20.835Z,84.20
2023-03-28T01:42:37.887Z,84.63
2023-03-28T01:44:54.977Z,84.10
2023-03-28T01:47:12.281Z,84.31
2023-03-28T01:49:29.349Z,84.09
2023-03-28T01:51:46.608Z,84.83
2023-03-28T01:54:04.584Z,84.38
2023-03-28T01:56:21.608Z,84.73
2023-03-28T01:58:38.645Z,84.57
2023-03-28T02:00:55.742Z,85.41
2023-03-28T02:03:13.159Z,84.94
2023-03-28T02:05:30.527Z,85.57
2023-03-28T02:07:47.626Z,84.66
2023-03-28T02:10:04.527Z,84.97
2023-03-28T02:12:21.476Z,84.79
2023-03-28T02:14:38.689Z,84.97
2023-03-28T02:16:55.746Z,85.34
2023-03-28T02:19:13.098Z,84.97
2023-03-28T02:21:29.996Z,85.05
2023-03-28T02:23:46.997Z,84.64
2023-03-28T02:26:05.077Z,84.41
2023-03-28T02:28:23.412Z,83.64
2023-03-28T02:30:40.693Z,83.79
2023-03-28T02:32:58.014Z,84.27
2023-03-28T02:35:15.283Z,84.74
2023-03-28T02:37:33.552Z,84.61
2023-03-28T02:39:50.619Z,84.59
2023-03-28T02:42:07.605Z,85.47
2023-03-28T02:44:27.192Z,85.17
2023-03-28T02:46:44.333Z,84.62
2023-03-28T02:49:01.642Z,85.13
2023-03-28T02:51:18.642Z,84.34
2023-03-28T02:53:36.831Z,84.56
2023-03-28T02:55:54.154Z,84.71
2023-03-28T02:58:11.576Z,84.11
2023-03-28T03:00:30.556Z,85.37
2023-03-28T03:02:47.509Z,85.56
2023-03-28T03:05:04.850Z,85.50
2023-03-28T03:07:21.846Z,85.63
2023-03-28T03:09:38.822Z,85.37
2023-03-28T03:11:55.753Z,85.57
2023-03-28T03:14:12.816Z,85.46
2023-03-28T03:16:30.081Z,85.50
2023-03-28T03:18:47.029Z,86.05
2023-03-28T03:21:04.319Z,85.18
2023-03-28T03:23:21.674Z,85.56
2023-03-28T03:25:38.980Z,84.98
2023-03-28T03:27:56.190Z,85.16
2023-03-28T03:30:13.190Z,85.21
2023-03-28T03:32:31.314Z,84.90
2023-03-28T03:34:48.328Z,85.06
2023-03-28T03:37:05.599Z,85.04
2023-03-28T03:39:23.798Z,85.78
2023-03-28T03:41:41.018Z,85.65
2023-03-28T03:43:58.364Z,85.90
2023-03-28T03:46:15.471Z,86.83
2023-03-28T03:48:32.526Z,86.85
2023-03-28T03:50:49.592Z,86.74
2023-03-28T03:53:06.579Z,86.21
2023-03-28T03:55:23.892Z,86.51
2023-03-28T03:57:41.161Z,86.45
2023-03-28T03:59:58.196Z,86.30
2023-03-28T04:02:15.239Z,85.45
2023-03-28T04:04:32.293Z,85.60
2023-03-28T04:06:49.387Z,85.74
2023-03-28T04:09:06.707Z,85.76
2023-03-28T04:11:23.770Z,85.03
2023-03-28T04:13:40.962Z,85.36
2023-03-28T04:15:58.089Z,85.95
2023-03-28T04:18:15.580Z,85.50
2023-03-28T04:20:32.659Z,85.45
2023-03-28T04:22:49.719Z,85.52
2023-03-28T04:25:06.638Z,85.85
2023-03-28T04:27:23.681Z,85.66
2023-03-28T04:29:40.717Z,86.11
2023-03-28T04:31:57.773Z,86.06
2023-03-28T04:34:15.973Z,85.79
2023-03-28T04:36:33.052Z,85.73
2023-03-28T04:38:50.002Z,85.47
2023-03-28T04:41:06.989Z,85.83
2023-03-28T04:43:24.004Z,85.01
2023-03-28T04:45:42.284Z,85.39
2023-03-28T04:47:59.196Z,85.30
2023-03-28T04:50:16.491Z,85.75
2023-03-28T04:52:34.482Z,85.45
2023-03-28T04:54:51.409Z,85.45
2023-03-28T04:57:08.391Z,84.88
2023-03-28T04:59:25.444Z,84.43
2023-03-28T05:01:42.476Z,84.32
2023-03-28T05:03:59.831Z,85.63
2023-03-28T05:06:16.766Z,85.45
2023-03-28T05:08:33.836Z,85.63
2023-03-28T05:10:50.826Z,85.61
2023-03-28T05:13:08.142Z,85.73
2023-03-28T05:15:25.371Z,85.60
2023-03-28T05:17:42.720Z,85.72
2023-03-28T05:19:59.758Z,86.27
2023-03-28T05:22:17.824Z,85.90
2023-03-28T05:24:36.865Z,86.20
2023-03-28T05:26:54.066Z,85.41
2023-03-28T05:29:11.130Z,85.21
2023-03-28T05:31:28.187Z,86.10
2023-03-28T05:33:46.462Z,85.69
2023-03-28T05:36:03.515Z,85.41
2023-03-28T05:38:20.610Z,85.61
2023-03-28T05:40:37.701Z,84.81
2023-03-28T05:42:54.587Z,85.27
2023-03-28T05:45:11.617Z,85.14
2023-03-28T05:47:28.924Z,84.99
2023-03-28T05:49:47.290Z,84.53
2023-03-28T05:52:04.557Z,84.98
2023-03-28T05:54:23.351Z,85.31
2023-03-28T05:56:40.448Z,85.31
2023-03-28T05:58:57.799Z,85.72
2023-03-28T06:01:14.785Z,85.98
2023-03-28T06:03:31.938Z,85.70
2023-03-28T06:05:49.274Z,85.54
2023-03-28T06:08:06.282Z,85.73
2023-03-28T06:10:23.287Z,85.61
2023-03-28T06:12:40.231Z,85.59
2023-03-28T06:14:57.470Z,85.44
2023-03-28T06:17:14.747Z,86.25
2023-03-28T06:19:32.027Z,86.10
2023-03-28T06:21:49.051Z,85.73
2023-03-28T06:24:06.088Z,85.12
2023-03-28T06:26:23.149Z,85.10
2023-03-28T06:28:40.414Z,85.88
2023-03-28T06:30:58.657Z,86.22
2023-03-28T06:33:16.007Z,85.74
2023-03-28T06:35:33.085Z,86.35
2023-03-28T06:37:50.299Z,86.16
2023-03-28T06:40:07.632Z,85.97
2023-03-28T06:42:25.823Z,85.97
2023-03-28T06:44:42.924Z,85.58
2023-03-28T06:46:59.977Z,85.13
2023-03-28T06:49:18.040Z,85.69
2023-03-28T06:51:35.239Z,85.45
2023-03-28T06:53:52.493Z,85.85
2023-03-28T06:56:09.703Z,85.83
2023-03-28T06:58:26.720Z,86.02
2023-03-28T07:00:43.944Z,85.70
2023-03-28T07:03:01.348Z,85.89
2023-03-28T07:05:18.419Z,86.29
2023-03-28T07:07:35.390Z,86.36
2023-03-28T07:09:53.761Z,86.64
2023-03-28T07:12:10.821Z,85.61
2023-03-28T07:14:27.862Z,86.31
2023-03-28T07:16:45.178Z,86.86
2023-03-28T07:19:02.265Z,86.58
2023-03-28T07:21:19.367Z,86.83
2023-03-28T07:23:36.699Z,86.46
2023-03-28T07:25:54.626Z,86.13
2023-03-28T07:28:11.622Z,85.75
2023-03-28T07:30:28.745Z,85.38
2023-03-28T07:35:05.701Z,85.01
2023-03-28T07:37:22.732Z,84.24
2023-03-28T07:39:39.754Z,85.02
2023-03-28T07:41:57.012Z,84.45
2023-03-28T07:44:14.308Z,83.79
2023-03-28T07:46:31.218Z,84.06
2023-03-28T07:48:48.522Z,83.35
2023-03-28T07:51:05.509Z,83.31
2023-03-28T07:53:22.554Z,82.34
2023-03-28T07:57:59.812Z,81.48
2023-03-28T08:00:16.750Z,81.52
2023-03-28T08:02:33.855Z,81.20
2023-03-28T08:04:51.819Z,79.82
2023-03-28T08:07:08.817Z,79.14
2023-03-28T08:09:26.037Z,78.39
2023-03-28T08:11:43.319Z,77.93
2023-03-28T08:14:00.321Z,78.85
2023-03-28T08:16:17.662Z,77.08
2023-03-28T08:18:34.722Z,77.40
2023-03-28T08:20:51.665Z,77.32
2023-03-28T08:23:09.003Z,77.78
2023-03-28T08:25:26.365Z,78.95
2023-03-28T08:27:43.607Z,77.51
2023-03-28T08:30:00.618Z,76.67
2023-03-28T08:32:17.580Z,76.38
2023-03-28T08:34:34.696Z,75.91
2023-03-28T08:36:52.644Z,74.21
2023-03-28T08:39:09.975Z,71.53
2023-03-28T08:41:27.002Z,70.79
2023-03-28T08:43:45.018Z,67.78
2023-03-28T08:46:03.076Z,67.17
2023-03-28T08:48:20.704Z,66.86
2023-03-28T08:50:37.652Z,64.84
2023-03-28T08:52:54.918Z,64.71
2023-03-28T08:55:12.073Z,63.21
2023-03-28T08:57:29.022Z,62.47
2023-03-28T08:59:46.041Z,61.99
2023-03-28T09:02:03.056Z,60.52
2023-03-28T09:04:21.064Z,59.32
2023-03-28T09:06:38.175Z,58.20
2023-03-28T09:08:55.395Z,56.54
2023-03-28T09:11:12.471Z,56.90
2023-03-28T09:13:29.332Z,58.41
2023-03-28T09:15:46.602Z,58.19
2023-03-28T09:18:03.954Z,56.21
2023-03-28T09:20:21.279Z,56.14
2023-03-28T09:22:39.128Z,54.72
2023-03-28T09:24:56.198Z,53.29
2023-03-28T09:27:13.226Z,53.36
2023-03-28T09:29:30.314Z,53.87
2023-03-28T09:31:47.360Z,53.38
2023-03-28T09:34:04.374Z,52.54
2023-03-28T09:36:21.380Z,52.10
2023-03-28T09:38:38.722Z,50.42
2023-03-28T09:40:55.797Z,49.86
2023-03-28T09:43:13.767Z,48.60
2023-03-28T09:45:32.083Z,49.93
2023-03-28T09:47:49.292Z,48.93
2023-03-28T09:50:16.242Z,48.82
2023-03-28T09:52:33.184Z,49.67
2023-03-28T09:54:50.100Z,48.72
2023-03-28T09:57:07.421Z,49.20
2023-03-28T09:59:26.231Z,47.66
2023-03-28T10:01:45.552Z,49.47
2023-03-28T10:04:02.622Z,47.92
2023-03-28T10:06:20.964Z,48.97
2023-03-28T10:08:37.851Z,48.77
2023-03-28T10:10:55.037Z,48.85
2023-03-28T10:13:12.077Z,48.55
2023-03-28T10:15:29.153Z,48.99
2023-03-28T10:17:46.191Z,49.90
2023-03-28T10:20:03.525Z,48.18
2023-03-28T10:22:20.537Z,48.35
2023-03-28T10:24:37.863Z,49.97
2023-03-28T10:26:55.100Z,47.63
2023-03-28T10:29:12.173Z,46.83
2023-03-28T10:31:29.529Z,48.63
2023-03-28T10:33:46.778Z,46.41
2023-03-28T10:36:04.149Z,48.93
2023-03-28T10:38:21.183Z,46.90
2023-03-28T10:40:38.579Z,47.69
2023-03-28T10:42:55.634Z,46.89
2023-03-28T10:45:12.582Z,46.23
2023-03-28T10:47:30.650Z,47.33
2023-03-28T10:49:47.667Z,47.68
2023-03-28T10:52:05.006Z,48.68
2023-03-28T10:54:22.260Z,46.83
2023-03-28T10:56:39.342Z,49.28
2023-03-28T10:58:56.282Z,48.63
2023-03-28T11:01:13.317Z,46.80
2023-03-28T11:03:30.472Z,46.92
2023-03-28T11:05:54.928Z,47.39
2023-03-28T11:08:19.067Z,48.11
2023-03-28T11:10:36.368Z,48.97
2023-03-28T11:12:56.113Z,46.36
2023-03-28T11:15:14.216Z,47.42
2023-03-28T11:17:31.275Z,45.98
2023-03-28T11:19:48.561Z,46.23
2023-03-28T11:22:05.584Z,45.55
2023-03-28T11:24:22.621Z,47.80
2023-03-28T11:26:39.658Z,45.54
2023-03-28T11:28:57.613Z,47.29
2023-03-28T11:31:15.572Z,45.76
2023-03-28T11:33:32.549Z,44.77
2023-03-28T11:35:49.532Z,43.12
2023-03-28T11:38:06.833Z,42.43
2023-03-28T11:40:23.776Z,44.19
2023-03-28T11:42:40.775Z,43.69
2023-03-28T11:44:58.104Z,44.50
2023-03-28T11:47:15.457Z,46.11
2023-03-28T11:49:32.508Z,45.22
2023-03-28T11:51:49.794Z,44.76
2023-03-28T11:54:06.768Z,44.56
2023-03-28T11:56:24.061Z,43.71
2023-03-28T11:58:42.103Z,42.35
2023-03-28T12:00:59.454Z,42.75
2023-03-28T12:03:17.158Z,43.32
2023-03-28T12:05:34.595Z,42.57
2023-03-28T12:07:51.656Z,42.25
2023-03-28T12:10:08.763Z,41.62
2023-03-28T12:12:25.841Z,42.07
2023-03-28T12:14:42.843Z,41.72
2023-03-28T12:16:59.924Z,41.82
2023-03-28T12:19:17.006Z,41.61
2023-03-28T12:21:34.332Z,42.03
2023-03-28T12:23:51.347Z,41.23
2023-03-28T12:26:08.570Z,41.56
2023-03-28T12:28:25.594Z,41.42
2023-03-28T12:30:42.899Z,41.43
2023-03-28T12:33:00.092Z,41.45
2023-03-28T12:35:18.226Z,40.80
2023-03-28T12:37:35.277Z,41.38
2023-03-28T12:39:54.936Z,39.75
2023-03-28T12:42:12.144Z,38.67
2023-03-28T12:44:30.219Z,40.40
2023-03-28T12:46:47.459Z,39.98
2023-03-28T12:49:04.791Z,40.91
2023-03-28T12:51:21.899Z,40.65
2023-03-28T12:53:39.510Z,39.63
2023-03-28T12:55:57.998Z,40.83
2023-03-28T12:58:15.101Z,40.34
2023-03-28T13:00:32.108Z,41.14
2023-03-28T13:02:49.618Z,41.10
2023-03-28T13:05:06.969Z,41.05
2023-03-28T13:07:24.364Z,40.64
2023-03-28T13:09:41.773Z,41.22
2023-03-28T13:11:59.109Z,37.18
2023-03-28T13:14:16.124Z,39.86
2023-03-28T13:16:33.245Z,40.80
2023-03-28T13:18:51.292Z,41.67
2023-03-28T13:21:08.312Z,41.63
2023-03-28T13:23:25.323Z,41.18
2023-03-28T13:25:42.326Z,40.46
2023-03-28T13:27:59.301Z,41.03
2023-03-28T13:30:16.328Z,42.46
2023-03-28T13:32:33.377Z,40.25
2023-03-28T13:34:51.342Z,40.45
2023-03-28T13:37:08.679Z,41.54
2023-03-28T13:39:26.569Z,40.57
2023-03-28T13:41:43.853Z,41.99
2023-03-28T13:44:01.148Z,40.02
2023-03-28T13:46:19.223Z,40.79
2023-03-28T13:48:36.288Z,41.25
2023-03-28T13:50:53.450Z,41.13
2023-03-28T13:53:11.469Z,39.63
2023-03-28T13:55:28.537Z,38.08
2023-03-28T13:57:45.582Z,39.55
2023-03-28T14:00:02.484Z,40.96
2023-03-28T14:02:19.503Z,40.53
2023-03-28T14:04:36.669Z,40.32
2023-03-28T14:06:53.979Z,40.55
2023-03-28T14:09:11.048Z,41.09
2023-03-28T14:11:28.302Z,40.01
2023-03-28T14:13:45.432Z,39.86
2023-03-28T14:16:02.411Z,38.56
2023-03-28T14:18:19.470Z,38.14
2023-03-28T14:20:37.824Z,39.26
2023-03-28T14:23:00.508Z,40.42
2023-03-28T14:25:19.494Z,40.27
2023-03-28T14:27:36.482Z,39.93
2023-03-28T14:29:53.545Z,39.02
2023-03-28T14:32:10.843Z,39.14
2023-03-28T14:34:28.103Z,38.64
2023-03-28T14:36:45.368Z,38.97
2023-03-28T14:39:02.257Z,39.30
2023-03-28T14:41:19.522Z,37.97
2023-03-28T14:43:37.423Z,38.98
2023-03-28T14:45:54.537Z,41.14
2023-03-28T14:48:11.900Z,39.08
2023-03-28T14:50:29.120Z,37.74
2023-03-28T14:52:46.351Z,39.04
2023-03-28T14:55:03.398Z,39.01
2023-03-28T14:57:20.757Z,39.73
2023-03-28T14:59:38.204Z,40.88
2023-03-28T15:01:55.249Z,39.56
2023-03-28T15:04:12.192Z,40.11
2023-03-28T15:06:29.425Z,39.98
2023-03-28T15:08:46.611Z,41.06
2023-03-28T15:11:03.618Z,41.17
2023-03-28T15:13:22.800Z,41.78
2023-03-28T15:15:40.651Z,42.23
2023-03-28T15:17:57.785Z,41.96
2023-03-28T15:20:14.705Z,42.13
2023-03-28T15:22:31.696Z,42.03
2023-03-28T15:24:48.792Z,41.58
2023-03-28T15:27:05.702Z,41.77
2023-03-28T15:29:22.651Z,42.61
2023-03-28T15:31:39.930Z,41.46
2023-03-28T15:33:56.969Z,42.08
2023-03-28T15:36:13.894Z,41.59
2023-03-28T15:38:30.833Z,41.50
2023-03-28T15:40:48.116Z,41.55
2023-03-28T15:43:05.464Z,39.82
2023-03-28T15:45:22.589Z,41.02
2023-03-28T15:47:39.533Z,42.51
2023-03-28T15:49:56.563Z,41.78
2023-03-28T15:52:13.561Z,41.99
2023-03-28T15:54:32.020Z,42.28
2023-03-28T15:56:49.466Z,42.33
2023-03-28T15:59:06.456Z,42.47
2023-03-28T16:01:23.444Z,41.61
2023-03-28T16:03:40.814Z,42.72
2023-03-28T16:06:07.651Z,42.72
2023-03-28T16:08:27.315Z,41.93
2023-03-28T16:10:45.265Z,42.96
2023-03-28T16:13:02.519Z,41.13
2023-03-28T16:15:19.434Z,43.16
2023-03-28T16:17:36.575Z,42.58
2023-03-28T16:19:53.614Z,41.92
2023-03-28T16:22:10.903Z,42.33
2023-03-28T16:24:29.137Z,41.83
2023-03-28T16:26:46.334Z,41.97
2023-03-28T16:29:03.328Z,42.42
2023-03-28T16:31:20.664Z,43.26
2023-03-28T16:33:38.906Z,41.51
2023-03-28T16:35:56.078Z,42.04
2023-03-28T16:38:13.156Z,43.00
2023-03-28T16:40:30.431Z,42.52
2023-03-28T16:42:47.733Z,43.22
2023-03-28T16:45:04.740Z,41.93
2023-03-28T16:47:21.773Z,42.69
2023-03-28T16:49:39.715Z,43.24
2023-03-28T16:51:57.942Z,43.77
2023-03-28T16:54:14.938Z,44.26
2023-03-28T16:56:32.209Z,44.80
2023-03-28T16:58:49.487Z,45.27
2023-03-28T17:01:06.359Z,45.73
2023-03-28T17:05:41.435Z,45.87
2023-03-28T17:07:58.684Z,46.97
2023-03-28T17:10:15.726Z,44.58
2023-03-28T17:12:33.964Z,45.95
2023-03-28T17:14:50.982Z,46.79
2023-03-28T17:17:07.954Z,46.85
2023-03-28T17:19:25.281Z,46.94
2023-03-28T17:21:42.488Z,47.66
2023-03-28T17:23:59.456Z,47.95
2023-03-28T17:26:16.772Z,46.72
2023-03-28T17:28:33.786Z,48.99
2023-03-28T17:30:51.020Z,47.99
2023-03-28T17:33:08.204Z,48.60
2023-03-28T17:35:25.569Z,48.90
2023-03-28T17:37:42.861Z,49.32
2023-03-28T17:40:00.128Z,48.77
2023-03-28T17:42:17.224Z,49.63
2023-03-28T17:44:34.196Z,50.63
2023-03-28T17:46:51.443Z,53.15
2023-03-28T17:49:08.547Z,52.25
2023-03-28T17:51:25.802Z,52.99
2023-03-28T17:53:43.107Z,53.80
2023-03-28T17:56:00.544Z,53.25
2023-03-28T17:58:17.791Z,54.40
2023-03-28T18:00:34.773Z,55.42
2023-03-28T18:02:51.921Z,55.91
2023-03-28T18:05:09.284Z,55.43
2023-03-28T18:07:26.619Z,57.16
2023-03-28T18:09:43.660Z,56.76
2023-03-28T18:12:00.737Z,56.25
2023-03-28T18:14:18.070Z,56.31
2023-03-28T18:16:35.370Z,56.81
2023-03-28T18:18:53.448Z,57.82
2023-03-28T18:21:10.527Z,58.21
2023-03-28T18:23:27.505Z,56.64
2023-03-28T18:25:44.409Z,57.13
2023-03-28T18:28:01.731Z,59.06
2023-03-28T18:30:19.046Z,58.30
2023-03-28T18:32:36.127Z,59.56
2023-03-28T18:34:53.526Z,60.07
2023-03-28T18:37:10.823Z,59.60
2023-03-28T18:39:28.218Z,60.28
2023-03-28T18:41:45.732Z,59.86
2023-03-28T18:44:02.618Z,60.99
2023-03-28T18:46:19.833Z,60.45
2023-03-28T18:48:36.865Z,61.38
2023-03-28T18:50:53.923Z,61.34
2023-03-28T18:53:10.998Z,62.15
2023-03-28T18:55:28.002Z,61.66
2023-03-28T18:57:45.928Z,62.37
2023-03-28T19:00:03.828Z,61.99
2023-03-28T19:02:20.748Z,63.32
2023-03-28T19:04:38.044Z,62.67
2023-03-28T19:06:56.115Z,63.22
2023-03-28T19:09:13.453Z,63.86
2023-03-28T19:11:32.520Z,62.47
2023-03-28T19:13:49.823Z,62.67
2023-03-28T19:16:07.291Z,62.51
2023-03-28T19:18:24.281Z,63.28
2023-03-28T19:20:42.295Z,65.37
2023-03-28T19:22:59.553Z,66.29
2023-03-28T19:25:16.619Z,67.37
2023-03-28T19:27:33.529Z,66.73
2023-03-28T19:29:50.537Z,68.54
2023-03-28T19:32:07.485Z,68.77
2023-03-28T19:34:24.438Z,68.99
2023-03-28T19:36:41.352Z,69.29
2023-03-28T19:38:58.247Z,70.20
2023-03-28T19:41:15.818Z,74.62
2023-03-28T19:43:32.928Z,76.86
2023-03-28T19:45:49.927Z,75.67
2023-03-28T19:48:07.092Z,75.63
2023-03-28T19:50:24.431Z,75.72
2023-03-28T19:52:41.466Z,74.94
2023-03-28T19:54:58.693Z,77.82
2023-03-28T19:57:15.783Z,79.42
2023-03-28T19:59:33.069Z,79.75
2023-03-28T20:01:50.182Z,79.27
2023-03-28T20:04:07.329Z,79.46
2023-03-28T20:06:24.354Z,81.39
2023-03-28T20:08:41.257Z,82.32
2023-03-28T20:10:58.676Z,81.44
2023-03-28T20:13:16.153Z,83.10
2023-03-28T20:15:33.233Z,82.80
2023-03-28T20:17:51.581Z,82.44
2023-03-28T20:20:08.618Z,82.80
2023-03-28T20:22:25.597Z,83.33
2023-03-28T20:24:42.544Z,82.88
2023-03-28T20:26:59.561Z,81.60
2023-03-28T20:29:16.645Z,82.39
2023-03-28T20:31:33.784Z,83.29
2023-03-28T20:33:50.829Z,83.28
2023-03-28T20:36:08.900Z,83.12
2023-03-28T20:38:26.890Z,82.85
2023-03-28T20:40:43.903Z,83.10
2023-03-28T20:43:01.414Z,82.21
2023-03-28T20:45:18.709Z,83.46
2023-03-28T20:47:35.696Z,83.70
2023-03-28T20:49:52.734Z,84.32
2023-03-28T20:52:09.797Z,82.76
2023-03-28T20:54:26.750Z,82.87
2023-03-28T20:56:43.761Z,83.99
2023-03-28T20:59:00.793Z,84.71
2023-03-28T21:01:18.189Z,83.95
2023-03-28T21:03:35.271Z,84.48
2023-03-28T21:05:52.278Z,85.24
2023-03-28T21:08:09.602Z,85.39
2023-03-28T21:10:26.945Z,85.43
2023-03-28T21:12:44.265Z,85.75
2023-03-28T21:15:01.387Z,86.02
2023-03-28T21:17:19.642Z,85.69
2023-03-28T21:19:37.929Z,86.00
2023-03-28T21:21:54.942Z,85.84
2023-03-28T21:24:11.997Z,85.97
2023-03-28T21:26:29.251Z,86.05
2023-03-28T21:28:46.370Z,85.66
2023-03-28T21:31:04.023Z,86.22
2023-03-28T21:33:21.300Z,85.04
2023-03-28T21:35:38.258Z,85.31
2023-03-28T21:37:55.249Z,86.18
2023-03-28T21:40:12.492Z,86.06
2023-03-28T21:42:29.531Z,86.93
2023-03-28T21:44:46.810Z,86.36
2023-03-28T21:47:04.098Z,86.57
2023-03-28T21:49:21.121Z,86.44
2023-03-28T21:51:38.421Z,86.18
2023-03-28T21:53:55.454Z,86.64
2023-03-28T21:56:12.878Z,86.42
2023-03-28T21:58:31.183Z,85.37
2023-03-28T22:00:48.234Z,85.78
2023-03-28T22:03:06.199Z,85.44
2023-03-28T22:05:29.834Z,85.69
2023-03-28T22:07:47.002Z,84.18
2023-03-28T22:10:04.055Z,82.96
2023-03-28T22:12:21.058Z,82.02
2023-03-28T22:14:38.010Z,82.76
2023-03-28T22:16:55.262Z,84.07
2023-03-28T22:19:12.351Z,85.73
2023-03-28T22:21:29.376Z,84.97
2023-03-28T22:23:47.067Z,85.31
2023-03-28T22:26:05.590Z,86.49
2023-03-28T22:28:22.686Z,85.57
2023-03-28T22:30:39.915Z,85.63
2023-03-28T22:32:58.981Z,85.58
2023-03-28T22:35:17.106Z,86.67
2023-03-28T22:37:34.365Z,86.21
2023-03-28T22:39:51.411Z,86.74
2023-03-28T22:42:08.702Z,86.74
2023-03-28T22:44:25.790Z,86.44
2023-03-28T22:46:42.940Z,85.88
2023-03-28T22:49:00.243Z,86.19
2023-03-28T22:51:17.537Z,87.06
2023-03-28T22:53:34.604Z,87.04
2023-03-28T22:55:51.648Z,88.01
2023-03-28T22:58:08.665Z,88.01
2023-03-28T23:00:25.596Z,87.93
2023-03-28T23:02:42.670Z,88.17
2023-03-28T23:04:59.744Z,87.28
2023-03-28T23:07:17.019Z,87.08
2023-03-28T23:09:34.040Z,86.43
2023-03-28T23:11:51.397Z,86.21
2023-03-28T23:14:09.467Z,86.56
2023-03-28T23:16:26.793Z,87.55
2023-03-28T23:18:44.726Z,87.45
2023-03-28T23:21:02.474Z,87.54
2023-03-28T23:23:19.639Z,88.11
2023-03-28T23:25:36.606Z,87.81
2023-03-28T23:27:53.635Z,87.43
2023-03-28T23:30:11.981Z,87.75
2023-03-28T23:32:29.141Z,87.12
2023-03-28T23:34:46.432Z,86.42
2023-03-28T23:37:03.487Z,87.53
2023-03-28T23:39:20.578Z,87.02
2023-03-28T23:41:37.635Z,87.69
2023-03-28T23:43:54.579Z,88.01
2023-03-28T23:46:11.604Z,87.41
2023-03-28T23:48:28.462Z,87.58
2023-03-28T23:50:45.559Z,88.11
2023-03-28T23:53:03.428Z,86.91
2023-03-28T23:55:20.501Z,87.65
2023-03-28T23:57:38.418Z,88.87
2023-03-28T23:59:56.569Z,88.52
